createdAt,value
2023-10-02T01:13:30.346Z,82.77
2023-10-02T01:15:58.082Z,84.15
2023-10-02T01:18:28.425Z,85.21
2023-10-02T01:20:57.596Z,85.40
2023-10-02T01:23:26.386Z,83.90
2023-10-02T01:25:57.942Z,82.84
2023-10-02T01:28:26.509Z,83.43
2023-10-02T01:30:56.196Z,84.62
2023-10-02T01:33:26.844Z,85.83
2023-10-02T01:35:56.490Z,86.92
2023-10-02T01:38:34.879Z,86.60
2023-10-02T01:41:06.133Z,84.57
2023-10-02T01:43:46.651Z,83.72
2023-10-02T01:46:18.402Z,84.13
2023-10-02T01:48:45.519Z,85.12
2023-10-02T01:51:29.112Z,86.31
2023-10-02T01:53:58.558Z,87.89
2023-10-02T01:56:30.279Z,87.28
2023-10-02T01:59:12.660Z,85.00
2023-10-02T02:01:52.905Z,84.25
2023-10-02T02:04:24.507Z,84.45
2023-10-02T02:06:53.102Z,85.48
2023-10-02T02:09:26.795Z,86.55
2023-10-02T02:12:08.532Z,87.96
2023-10-02T02:14:41.977Z,87.32
2023-10-02T02:17:11.665Z,85.27
2023-10-02T02:19:45.657Z,84.22
2023-10-02T02:22:12.550Z,84.59
2023-10-02T02:24:39.605Z,85.13
2023-10-02T02:27:08.615Z,86.54
2023-10-02T02:29:35.729Z,87.47
2023-10-02T02:32:03.228Z,87.45
2023-10-02T02:34:31.170Z,85.60
2023-10-02T02:36:58.624Z,84.66
2023-10-02T02:39:27.954Z,85.27
2023-10-02T02:42:17.621Z,86.14
2023-10-02T02:44:51.432Z,86.87
2023-10-02T02:47:20.923Z,88.02
2023-10-02T02:50:01.153Z,88.22
2023-10-02T02:52:33.269Z,86.05
2023-10-02T02:55:13.693Z,85.10
2023-10-02T02:57:45.954Z,85.79
2023-10-02T03:00:32.582Z,86.97
2023-10-02T03:03:01.206Z,88.46
2023-10-02T03:05:38.935Z,88.47
2023-10-02T03:08:06.489Z,86.24
2023-10-02T03:10:41.170Z,85.52
2023-10-02T03:13:16.411Z,86.01
2023-10-02T03:15:47.285Z,86.85
2023-10-02T03:18:24.051Z,87.39
2023-10-02T03:20:51.535Z,87.35
2023-10-02T03:23:19.195Z,85.32
2023-10-02T03:25:48.430Z,84.43
2023-10-02T03:28:32.983Z,84.81
2023-10-02T03:31:01.364Z,85.42
2023-10-02T03:33:32.091Z,86.49
2023-10-02T03:36:09.243Z,87.64
2023-10-02T03:38:43.333Z,87.81
2023-10-02T03:41:14.398Z,85.77
2023-10-02T03:43:46.184Z,85.15
2023-10-02T03:46:36.774Z,85.42
2023-10-02T03:49:04.934Z,86.29
2023-10-02T03:51:41.600Z,87.34
2023-10-02T03:54:18.710Z,87.32
2023-10-02T03:56:48.661Z,85.73
2023-10-02T03:59:21.951Z,84.77
2023-10-02T04:01:50.791Z,85.45
2023-10-02T04:04:17.843Z,86.21
2023-10-02T04:06:44.820Z,86.98
2023-10-02T04:09:12.758Z,88.51
2023-10-02T04:11:40.416Z,88.94
2023-10-02T04:14:19.813Z,87.17
2023-10-02T04:16:52.650Z,86.36
2023-10-02T04:19:26.125Z,86.53
2023-10-02T04:21:53.582Z,87.38
2023-10-02T04:24:27.183Z,88.63
2023-10-02T04:27:15.224Z,89.43
2023-10-02T04:30:02.167Z,89.06
2023-10-02T04:32:33.101Z,86.79
2023-10-02T04:35:03.622Z,85.96
2023-10-02T04:37:37.193Z,86.41
2023-10-02T04:40:17.428Z,86.97
2023-10-02T04:43:10.318Z,88.40
2023-10-02T04:45:37.567Z,88.85
2023-10-02T04:48:11.336Z,86.90
2023-10-02T04:50:46.023Z,86.52
2023-10-02T04:53:16.028Z,86.86
2023-10-02T04:55:44.456Z,87.58
2023-10-02T04:58:19.759Z,88.44
2023-10-02T05:01:03.741Z,87.28
2023-10-02T05:03:31.989Z,84.58
2023-10-02T05:06:00.014Z,83.18
2023-10-02T05:09:22.085Z,83.12
2023-10-02T05:11:53.694Z,83.61
2023-10-02T05:14:32.797Z,84.74
2023-10-02T05:17:17.966Z,84.53
2023-10-02T05:19:58.684Z,82.76
2023-10-02T05:22:28.440Z,83.11
2023-10-02T05:25:05.194Z,84.12
2023-10-02T05:27:34.367Z,85.22
2023-10-02T05:30:05.995Z,87.26
2023-10-02T05:32:33.486Z,88.24
2023-10-02T05:35:17.255Z,86.54
2023-10-02T05:37:46.840Z,85.77
2023-10-02T05:40:19.266Z,86.48
2023-10-02T05:43:02.893Z,87.64
2023-10-02T05:45:45.513Z,88.83
2023-10-02T05:48:28.378Z,87.57
2023-10-02T05:51:00.021Z,85.53
2023-10-02T05:53:29.980Z,85.26
2023-10-02T05:56:06.734Z,85.97
2023-10-02T05:58:37.891Z,86.53
2023-10-02T06:01:07.396Z,87.36
2023-10-02T06:03:35.437Z,86.15
2023-10-02T06:06:16.124Z,84.71
2023-10-02T06:08:50.577Z,83.20
2023-10-02T06:11:27.448Z,84.00
2023-10-02T06:13:59.128Z,84.88
2023-10-02T06:16:30.392Z,85.39
2023-10-02T06:19:03.815Z,84.49
2023-10-02T06:21:55.529Z,82.38
2023-10-02T06:24:28.626Z,82.13
2023-10-02T06:26:58.417Z,83.18
2023-10-02T06:29:26.694Z,83.29
2023-10-02T06:31:59.166Z,84.08
2023-10-02T06:34:34.615Z,82.41
2023-10-02T06:37:08.168Z,80.72
2023-10-02T06:39:38.539Z,79.98
2023-10-02T06:42:05.691Z,81.08
2023-10-02T06:44:42.568Z,81.23
2023-10-02T06:47:12.396Z,81.67
2023-10-02T06:49:40.963Z,79.52
2023-10-02T06:52:17.949Z,77.64
2023-10-02T06:54:56.767Z,76.23
2023-10-02T06:57:25.865Z,76.23
2023-10-02T06:59:53.352Z,77.52
2023-10-02T07:02:20.972Z,77.71
2023-10-02T07:04:49.561Z,77.33
2023-10-02T07:07:27.340Z,77.61
2023-10-02T07:09:55.787Z,76.22
2023-10-02T07:12:28.522Z,74.70
2023-10-02T07:15:11.443Z,74.60
2023-10-02T07:17:49.186Z,74.67
2023-10-02T07:20:21.683Z,74.77
2023-10-02T07:22:49.327Z,74.94
2023-10-02T07:25:25.448Z,75.62
2023-10-02T07:27:52.896Z,75.37
2023-10-02T07:30:26.742Z,73.02
2023-10-02T07:32:54.431Z,71.62
2023-10-02T07:35:24.877Z,71.02
2023-10-02T07:38:01.356Z,71.48
2023-10-02T07:40:47.123Z,71.80
2023-10-02T07:43:17.706Z,71.92
2023-10-02T07:46:09.113Z,72.84
2023-10-02T07:48:36.393Z,72.12
2023-10-02T07:51:04.422Z,72.06
2023-10-02T07:53:40.690Z,72.17
2023-10-02T07:56:09.131Z,71.95
2023-10-02T07:58:36.629Z,72.36
2023-10-02T08:01:11.911Z,72.23
2023-10-02T08:03:50.670Z,71.98
2023-10-02T08:06:22.672Z,71.53
2023-10-02T08:09:22.989Z,71.43
2023-10-02T08:11:54.139Z,71.26
2023-10-02T08:14:41.364Z,70.94
2023-10-02T08:17:22.815Z,70.56
2023-10-02T08:20:00.105Z,70.14
2023-10-02T08:22:36.179Z,69.66
2023-10-02T08:25:04.955Z,69.96
2023-10-02T08:27:33.041Z,69.07
2023-10-02T08:30:02.427Z,67.76
2023-10-02T08:32:29.878Z,67.73
2023-10-02T08:34:58.035Z,66.76
2023-10-02T08:37:26.702Z,66.52
2023-10-02T08:39:53.736Z,65.56
2023-10-02T08:42:24.838Z,64.52
2023-10-02T08:44:59.058Z,63.95
2023-10-02T08:47:26.108Z,62.90
2023-10-02T08:50:04.555Z,62.86
2023-10-02T08:52:48.105Z,62.34
2023-10-02T08:55:34.143Z,61.92
2023-10-02T08:58:17.884Z,60.53
2023-10-02T09:01:11.910Z,60.28
2023-10-02T09:03:44.126Z,59.63
2023-10-02T09:14:20.852Z,54.72
2023-10-02T09:24:29.363Z,54.08
2023-10-02T09:35:39.791Z,54.86
2023-10-02T09:38:07.865Z,53.06
2023-10-02T09:40:55.003Z,53.77
2023-10-02T09:43:24.306Z,54.04
2023-10-02T09:45:56.459Z,54.63
2023-10-02T09:48:54.234Z,54.95
2023-10-02T09:51:27.585Z,54.34
2023-10-02T09:54:33.073Z,54.77
2023-10-02T09:57:06.477Z,53.62
2023-10-02T09:59:47.510Z,51.30
2023-10-02T10:02:41.074Z,51.16
2023-10-02T10:05:08.152Z,50.95
2023-10-02T10:08:04.461Z,49.42
2023-10-02T10:10:48.280Z,47.82
2023-10-02T10:13:38.543Z,46.68
2023-10-02T10:16:21.506Z,46.49
2023-10-02T10:19:10.115Z,45.74
2023-10-02T10:21:56.646Z,46.86
2023-10-02T10:24:32.514Z,48.38
2023-10-02T10:26:59.555Z,49.36
2023-10-02T10:29:41.954Z,50.00
2023-10-02T10:32:17.281Z,48.79
2023-10-02T10:35:14.262Z,47.95
2023-10-02T10:37:48.708Z,47.22
2023-10-02T10:40:52.082Z,46.39
2023-10-02T10:43:19.458Z,45.38
2023-10-02T10:45:49.057Z,45.15
2023-10-02T10:48:24.999Z,44.57
2023-10-02T10:51:07.288Z,43.63
2023-10-02T10:53:34.229Z,42.62
2023-10-02T10:56:08.809Z,42.29
2023-10-02T10:58:35.715Z,42.92
2023-10-02T11:01:13.930Z,43.60
2023-10-02T11:03:42.611Z,44.17
2023-10-02T11:06:16.424Z,43.30
2023-10-02T11:08:45.399Z,43.23
2023-10-02T11:11:19.906Z,42.98
2023-10-02T11:14:10.879Z,42.67
2023-10-02T11:16:38.641Z,42.80
2023-10-02T11:19:22.423Z,42.72
2023-10-02T11:22:16.639Z,42.52
2023-10-02T11:24:54.222Z,43.17
2023-10-02T11:27:22.193Z,44.27
2023-10-02T11:30:04.801Z,44.26
2023-10-02T11:32:54.430Z,44.09
2023-10-02T11:35:22.441Z,44.30
2023-10-02T11:37:50.235Z,45.00
2023-10-02T11:40:17.148Z,44.75
2023-10-02T11:42:44.084Z,45.07
2023-10-02T11:45:12.476Z,44.69
2023-10-02T11:47:39.495Z,43.93
2023-10-02T11:50:07.368Z,43.81
2023-10-02T11:52:34.435Z,43.47
2023-10-02T11:55:01.525Z,43.90
2023-10-02T11:57:29.454Z,44.21
2023-10-02T11:59:56.239Z,44.54
2023-10-02T12:02:23.270Z,45.22
2023-10-02T12:04:53.112Z,45.86
2023-10-02T12:07:20.327Z,45.37
2023-10-02T12:09:48.180Z,44.73
2023-10-02T12:12:15.124Z,44.24
2023-10-02T12:14:44.528Z,43.17
2023-10-02T12:17:14.987Z,43.02
2023-10-02T12:19:43.327Z,44.32
2023-10-02T12:22:10.474Z,45.12
2023-10-02T12:24:37.646Z,45.20
2023-10-02T12:27:11.328Z,44.93
2023-10-02T12:29:39.141Z,44.44
2023-10-02T12:32:06.595Z,44.11
2023-10-02T12:34:35.258Z,44.67
2023-10-02T12:37:03.720Z,44.32
2023-10-02T12:39:31.593Z,45.43
2023-10-02T12:41:58.649Z,46.31
2023-10-02T12:44:25.628Z,45.89
2023-10-02T12:46:52.821Z,45.59
2023-10-02T12:49:21.082Z,45.70
2023-10-02T12:51:50.810Z,45.19
2023-10-02T12:54:17.672Z,44.36
2023-10-02T12:56:46.371Z,43.54
2023-10-02T12:59:13.708Z,43.56
2023-10-02T13:01:41.783Z,43.58
2023-10-02T13:04:08.904Z,43.62
2023-10-02T13:06:35.951Z,43.12
2023-10-02T13:09:11.236Z,43.38
2023-10-02T13:11:40.804Z,43.46
2023-10-02T13:14:12.330Z,44.13
2023-10-02T13:16:43.009Z,44.40
2023-10-02T13:19:10.438Z,44.62
2023-10-02T13:21:52.723Z,44.02
2023-10-02T13:24:24.084Z,44.53
2023-10-02T13:26:54.300Z,44.90
2023-10-02T13:29:23.895Z,43.97
2023-10-02T13:31:52.614Z,43.65
2023-10-02T13:34:20.943Z,43.88
2023-10-02T13:36:48.159Z,44.05
2023-10-02T13:39:17.872Z,44.16
2023-10-02T13:41:46.141Z,44.03
2023-10-02T13:44:13.042Z,43.58
2023-10-02T13:46:40.690Z,44.29
2023-10-02T13:49:09.843Z,43.79
2023-10-02T13:51:37.830Z,44.25
2023-10-02T13:54:05.792Z,44.60
2023-10-02T13:56:36.989Z,44.89
2023-10-02T13:59:04.952Z,45.33
2023-10-02T14:01:34.901Z,45.37
2023-10-02T14:04:02.205Z,45.65
2023-10-02T14:06:30.647Z,45.64
2023-10-02T14:08:58.317Z,45.66
2023-10-02T14:11:26.509Z,45.58
2023-10-02T14:14:00.962Z,45.36
2023-10-02T14:16:28.592Z,45.64
2023-10-02T14:18:57.553Z,45.51
2023-10-02T14:21:26.828Z,45.64
2023-10-02T14:23:54.683Z,46.08
2023-10-02T14:26:25.854Z,45.96
2023-10-02T14:28:53.793Z,46.50
2023-10-02T14:31:33.548Z,46.59
2023-10-02T14:34:02.051Z,46.87
2023-10-02T14:36:29.845Z,47.05
2023-10-02T14:38:58.010Z,47.35
2023-10-02T14:41:26.571Z,47.89
2023-10-02T14:43:54.617Z,48.01
2023-10-02T14:46:22.318Z,48.12
2023-10-02T14:48:49.291Z,48.23
2023-10-02T14:51:18.514Z,48.57
2023-10-02T14:53:46.238Z,48.78
2023-10-02T14:56:13.386Z,48.97
2023-10-02T14:58:47.701Z,49.49
2023-10-02T15:01:17.565Z,49.73
2023-10-02T15:03:44.712Z,49.98
2023-10-02T15:06:12.951Z,50.71
2023-10-02T15:08:40.939Z,50.47
2023-10-02T15:11:08.609Z,50.80
2023-10-02T15:13:37.457Z,51.51
2023-10-02T15:16:11.240Z,51.52
2023-10-02T15:18:38.913Z,51.72
2023-10-02T15:21:09.066Z,51.86
2023-10-02T15:26:12.837Z,52.41
2023-10-02T15:28:40.763Z,53.05
2023-10-02T15:31:09.038Z,53.38
2023-10-02T15:33:37.408Z,54.01
2023-10-02T15:36:06.193Z,54.43
2023-10-02T15:38:33.915Z,54.75
2023-10-02T15:41:03.203Z,54.70
2023-10-02T15:43:31.256Z,55.32
2023-10-02T15:46:05.208Z,55.59
2023-10-02T15:48:35.189Z,56.62
2023-10-02T15:51:02.897Z,57.17
2023-10-02T15:53:30.618Z,57.77
2023-10-02T15:55:58.424Z,58.51
2023-10-02T15:58:28.954Z,58.99
2023-10-02T16:00:58.622Z,59.07
2023-10-02T16:03:27.621Z,59.43
2023-10-02T16:05:55.522Z,59.56
2023-10-02T16:08:23.109Z,60.31
2023-10-02T16:10:50.755Z,61.44
2023-10-02T16:13:18.632Z,61.90
2023-10-02T16:15:46.487Z,62.49
2023-10-02T16:18:14.519Z,62.82
2023-10-02T16:28:31.929Z,64.83
2023-10-02T16:38:48.740Z,65.67
2023-10-02T16:41:23.371Z,65.80
2023-10-02T16:51:29.572Z,67.26
2023-10-02T16:53:57.292Z,67.91
2023-10-02T16:56:25.444Z,68.31
2023-10-02T16:58:53.263Z,68.34
2023-10-02T17:01:21.071Z,66.41
2023-10-02T17:03:51.487Z,65.17
2023-10-02T17:06:19.511Z,65.13
2023-10-02T17:08:49.626Z,65.87
2023-10-02T17:18:56.280Z,68.70
2023-10-02T17:21:30.831Z,68.79
2023-10-02T17:23:58.787Z,68.85
2023-10-02T17:26:26.612Z,69.61
2023-10-02T17:28:54.596Z,70.42
2023-10-02T17:31:28.036Z,70.99
2023-10-02T17:34:00.337Z,70.58
2023-10-02T17:36:29.011Z,68.63
2023-10-02T17:38:56.796Z,67.86
2023-10-02T17:41:24.707Z,68.10
2023-10-02T17:51:37.834Z,69.78
2023-10-02T17:54:05.788Z,70.14
2023-10-02T17:56:33.611Z,70.12
2023-10-02T17:59:01.474Z,69.44
2023-10-02T18:01:29.545Z,70.17
2023-10-02T18:03:58.972Z,70.70
2023-10-02T18:06:26.763Z,71.49
2023-10-02T18:08:54.438Z,69.72
2023-10-02T18:11:26.463Z,68.21
2023-10-02T18:13:54.140Z,68.59
2023-10-02T18:16:22.129Z,68.73
2023-10-02T18:18:49.774Z,69.01
2023-10-02T18:21:20.153Z,69.70
2023-10-02T18:23:48.278Z,70.37
2023-10-02T18:26:16.063Z,70.30
2023-10-02T18:28:44.029Z,70.38
2023-10-02T18:31:12.260Z,71.79
2023-10-02T18:33:40.251Z,72.21
2023-10-02T18:36:10.434Z,71.10
2023-10-02T18:38:38.607Z,70.12
2023-10-02T18:41:12.116Z,70.00
2023-10-02T18:43:40.570Z,70.58
2023-10-02T18:46:09.062Z,71.47
2023-10-02T18:48:36.878Z,72.02
2023-10-02T18:51:04.540Z,72.35
2023-10-02T18:53:36.699Z,72.64
2023-10-02T18:56:05.966Z,73.31
2023-10-02T18:58:33.797Z,74.03
2023-10-02T19:01:01.424Z,72.88
2023-10-02T19:03:29.914Z,72.18
2023-10-02T19:06:00.786Z,72.42
2023-10-02T19:08:28.533Z,72.78
2023-10-02T19:10:56.815Z,73.30
2023-10-02T19:13:24.601Z,73.82
2023-10-02T19:15:52.548Z,74.25
2023-10-02T19:18:20.362Z,74.73
2023-10-02T19:20:48.076Z,75.74
2023-10-02T19:30:55.283Z,74.52
2023-10-02T19:33:24.207Z,74.25
2023-10-02T19:35:51.933Z,74.43
2023-10-02T19:38:19.628Z,74.76
2023-10-02T19:40:47.358Z,75.20
2023-10-02T19:43:15.636Z,75.61
2023-10-02T19:45:45.892Z,77.02
2023-10-02T19:48:13.757Z,77.03
2023-10-02T19:50:41.698Z,75.22
2023-10-02T19:53:09.492Z,74.28
2023-10-02T19:55:37.227Z,73.68
2023-10-02T19:58:05.407Z,74.52
2023-10-02T20:00:35.052Z,75.56
2023-10-02T20:10:41.220Z,79.85
2023-10-02T20:13:09.685Z,79.57
2023-10-02T20:15:38.296Z,77.40
2023-10-02T20:18:07.725Z,75.64
2023-10-02T20:20:35.766Z,75.02
2023-10-02T20:30:42.302Z,78.82
2023-10-02T20:33:10.804Z,79.75
2023-10-02T20:35:40.183Z,79.67
2023-10-02T20:38:07.849Z,77.83
2023-10-02T20:40:35.578Z,76.91
2023-10-02T20:50:48.549Z,76.43
2023-10-02T20:53:16.393Z,76.58
2023-10-02T21:03:28.323Z,74.35
2023-10-02T21:05:56.201Z,74.72
2023-10-02T21:08:25.490Z,74.77
2023-10-02T21:10:53.945Z,73.89
2023-10-02T21:13:21.672Z,74.17
2023-10-02T21:15:49.392Z,75.39
2023-10-02T21:18:20.097Z,77.49
2023-10-02T21:20:50.041Z,77.80
2023-10-02T21:30:54.974Z,74.54
2023-10-02T21:33:24.106Z,75.02
2023-10-02T21:36:02.007Z,76.68
2023-10-02T21:38:29.632Z,76.69
2023-10-02T21:40:57.333Z,76.86
2023-10-02T21:49:38.606Z,77.35
2023-10-02T21:52:06.198Z,76.47
2023-10-02T21:54:35.875Z,76.44
2023-10-02T21:57:04.264Z,77.50
2023-10-02T21:59:31.958Z,77.70
2023-10-02T22:02:00.912Z,77.69
2023-10-02T22:04:28.599Z,76.44
2023-10-02T22:06:56.443Z,77.31
2023-10-02T22:09:24.706Z,77.80
2023-10-02T22:11:52.315Z,76.85
2023-10-02T22:22:07.186Z,77.99
2023-10-02T22:24:35.463Z,77.62
2023-10-02T22:27:03.834Z,77.86
2023-10-02T22:29:31.968Z,78.18
2023-10-02T22:32:00.968Z,78.27
2023-10-02T22:37:02.098Z,76.20
2023-10-02T22:39:30.137Z,75.82
2023-10-02T22:41:57.802Z,75.94
2023-10-02T22:44:25.563Z,76.08
2023-10-02T22:54:21.025Z,78.11
2023-10-02T23:04:32.146Z,75.84
2023-10-02T23:07:00.435Z,76.27
2023-10-02T23:16:27.986Z,78.17
2023-10-02T23:18:54.875Z,78.72
2023-10-02T23:21:21.838Z,78.99
2023-10-02T23:23:49.858Z,77.92
2023-10-02T23:26:18.055Z,76.92
2023-10-02T23:28:46.648Z,76.68
2023-10-02T23:31:13.862Z,76.76
2023-10-02T23:33:42.664Z,77.51
2023-10-02T23:36:11.570Z,77.90
2023-10-02T23:38:38.771Z,78.16
2023-10-02T23:41:07.737Z,78.54
2023-10-02T23:43:34.790Z,77.43
2023-10-02T23:46:02.153Z,76.21
2023-10-02T23:48:30.833Z,75.70
2023-10-02T23:50:58.156Z,75.81
2023-10-02T23:53:26.337Z,76.18
2023-10-02T23:56:00.364Z,76.91
2023-10-02T23:58:28.421Z,77.56
